createdAt,value
2023-01-27T00:00:17.351Z,5.17
2023-01-27T00:01:09.951Z,4.60
2023-01-27T00:02:05.503Z,4.73
2023-01-27T00:02:58.070Z,4.97
2023-01-27T00:03:53.835Z,4.53
2023-01-27T00:04:46.450Z,5.20
2023-01-27T00:05:41.847Z,4.27
2023-01-27T00:06:34.415Z,4.68
2023-01-27T00:07:32.212Z,5.03
2023-01-27T00:08:24.944Z,5.17
2023-01-27T00:09:20.388Z,4.70
2023-01-27T00:10:15.183Z,4.40
2023-01-27T00:11:22.856Z,4.78
2023-01-27T00:12:34.309Z,4.60
2023-01-27T00:13:33.709Z,4.77
2023-01-27T00:14:26.276Z,5.40
2023-01-27T00:15:21.582Z,5.28
2023-01-27T00:16:14.351Z,5.00
2023-01-27T00:17:09.643Z,5.00
2023-01-27T00:18:02.419Z,5.00
2023-01-27T00:18:57.587Z,5.33
2023-01-27T00:19:50.163Z,5.53
2023-01-27T00:20:57.739Z,4.80
2023-01-27T00:22:05.335Z,5.88
2023-01-27T00:23:15.474Z,5.00
2023-01-27T00:24:25.007Z,4.77
2023-01-27T00:25:20.466Z,4.73
2023-01-27T00:26:16.551Z,4.88
2023-01-27T00:27:12.720Z,4.50
2023-01-27T00:28:05.990Z,5.07
2023-01-27T00:29:01.273Z,4.93
2023-01-27T00:29:54.085Z,4.60
2023-01-27T00:30:46.681Z,5.17
2023-01-27T00:31:54.349Z,4.70
2023-01-27T00:33:01.965Z,5.07
2023-01-27T00:34:02.009Z,4.60
2023-01-27T00:34:54.620Z,5.00
2023-01-27T00:35:49.817Z,5.47
2023-01-27T00:36:42.997Z,4.70
2023-01-27T00:37:38.159Z,5.22
2023-01-27T00:38:40.853Z,5.07
2023-01-27T00:39:36.203Z,5.15
2023-01-27T00:40:28.767Z,4.70
2023-01-27T00:41:23.938Z,5.50
2023-01-27T00:42:16.577Z,5.60
2023-01-27T00:43:11.751Z,4.83
2023-01-27T00:44:05.697Z,4.60
2023-01-27T00:45:13.308Z,5.47
2023-01-27T00:46:08.958Z,4.90
2023-01-27T00:47:01.642Z,4.73
2023-01-27T00:47:56.857Z,4.90
2023-01-27T00:48:51.928Z,5.13
2023-01-27T00:49:47.159Z,4.63
2023-01-27T00:50:40.315Z,5.57
2023-01-27T00:51:36.593Z,4.90
2023-01-27T00:52:29.143Z,4.40
2023-01-27T00:53:24.360Z,5.30
2023-01-27T00:54:20.246Z,4.60
2023-01-27T00:55:16.129Z,4.78
2023-01-27T00:56:09.996Z,4.50
2023-01-27T00:57:05.179Z,4.95
2023-01-27T00:57:57.804Z,4.68
2023-01-27T00:58:53.082Z,4.50
2023-01-27T00:59:45.646Z,4.70
2023-01-27T01:00:40.802Z,4.50
2023-01-27T01:01:34.185Z,4.90
2023-01-27T01:02:29.436Z,5.10
2023-01-27T01:03:22.456Z,4.68
2023-01-27T01:04:17.614Z,4.80
2023-01-27T01:05:12.139Z,5.27
2023-01-27T01:06:09.570Z,5.70
2023-01-27T01:07:02.138Z,5.10
2023-01-27T01:07:57.315Z,4.70
2023-01-27T01:08:51.391Z,5.00
2023-01-27T01:09:49.171Z,5.53
2023-01-27T01:10:41.750Z,5.32
2023-01-27T01:11:36.918Z,5.10
2023-01-27T01:12:30.513Z,4.97
2023-01-27T01:13:23.148Z,5.47
2023-01-27T01:14:18.566Z,5.03
2023-01-27T01:15:11.782Z,5.00
2023-01-27T01:16:11.284Z,5.33
2023-01-27T01:17:03.904Z,5.37
2023-01-27T01:17:59.080Z,4.70
2023-01-27T01:18:51.703Z,4.80
2023-01-27T01:19:46.855Z,5.18
2023-01-27T01:20:41.876Z,4.75
2023-01-27T01:21:37.167Z,4.90
2023-01-27T01:22:29.739Z,5.07
2023-01-27T01:23:24.991Z,5.80
2023-01-27T01:24:17.664Z,5.15
2023-01-27T01:25:15.512Z,5.10
2023-01-27T01:26:09.519Z,4.90
2023-01-27T01:27:04.700Z,5.43
2023-01-27T01:27:57.298Z,5.00
2023-01-27T01:28:52.470Z,5.30
2023-01-27T01:29:45.032Z,5.60
2023-01-27T01:30:40.978Z,5.43
2023-01-27T01:31:33.710Z,5.72
2023-01-27T01:32:28.906Z,5.70
2023-01-27T01:33:21.546Z,5.20
2023-01-27T01:34:16.869Z,4.93
2023-01-27T01:35:10.002Z,5.50
2023-01-27T01:36:09.638Z,5.25
2023-01-27T01:37:02.223Z,4.43
2023-01-27T01:37:57.523Z,5.03
2023-01-27T01:38:54.419Z,5.30
2023-01-27T01:39:49.587Z,5.45
2023-01-27T01:40:45.077Z,5.03
2023-01-27T01:41:40.230Z,5.35
2023-01-27T01:42:52.226Z,5.38
2023-01-27T01:43:47.479Z,4.70
2023-01-27T01:44:44.188Z,5.00
2023-01-27T01:45:50.334Z,5.28
2023-01-27T01:46:43.108Z,5.07
2023-01-27T01:47:38.294Z,5.90
2023-01-27T01:48:35.118Z,5.47
2023-01-27T01:49:32.270Z,5.05
2023-01-27T01:50:25.522Z,5.50
2023-01-27T01:51:23.052Z,5.95
2023-01-27T01:52:19.532Z,4.97
2023-01-27T01:53:12.637Z,5.75
2023-01-27T01:54:11.344Z,4.78
2023-01-27T01:55:04.456Z,5.17
2023-01-27T01:56:05.500Z,4.77
2023-01-27T01:57:01.738Z,5.60
2023-01-27T01:57:57.072Z,5.80
2023-01-27T01:58:49.884Z,5.18
2023-01-27T01:59:47.779Z,5.28
2023-01-27T02:00:41.575Z,5.30
2023-01-27T02:01:36.847Z,5.25
2023-01-27T02:02:29.778Z,5.00
2023-01-27T02:03:26.227Z,4.90
2023-01-27T02:04:21.487Z,5.10
2023-01-27T02:05:20.333Z,5.40
2023-01-27T02:06:13.694Z,4.80
2023-01-27T02:07:11.629Z,5.38
2023-01-27T02:08:10.037Z,5.10
2023-01-27T02:09:05.273Z,4.40
2023-01-27T02:09:58.219Z,5.10
2023-01-27T02:10:54.587Z,4.68
2023-01-27T02:11:50.405Z,5.03
2023-01-27T02:12:45.604Z,4.13
2023-01-27T02:13:38.686Z,4.30
2023-01-27T02:14:34.058Z,3.63
2023-01-27T02:15:26.688Z,4.20
2023-01-27T02:16:22.154Z,4.68
2023-01-27T02:17:15.268Z,4.40
2023-01-27T02:18:10.909Z,4.40
2023-01-27T02:19:04.065Z,4.53
2023-01-27T02:20:06.572Z,4.07
2023-01-27T02:20:59.302Z,4.10
2023-01-27T02:21:56.091Z,4.07
2023-01-27T02:22:54.272Z,4.18
2023-01-27T02:23:58.884Z,3.65
2023-01-27T02:24:55.902Z,3.80
2023-01-27T02:25:57.058Z,4.10
2023-01-27T02:26:50.225Z,3.60
2023-01-27T02:27:45.586Z,3.87
2023-01-27T02:28:38.215Z,3.80
2023-01-27T02:29:33.403Z,3.70
2023-01-27T02:30:26.212Z,4.15
2023-01-27T02:31:21.695Z,3.90
2023-01-27T02:32:23.175Z,3.78
2023-01-27T02:33:18.929Z,3.70
2023-01-27T02:34:13.094Z,3.80
2023-01-27T02:35:11.745Z,4.35
2023-01-27T02:36:08.439Z,4.33
2023-01-27T02:37:06.305Z,5.13
2023-01-27T02:37:59.613Z,4.43
2023-01-27T02:38:56.852Z,3.60
2023-01-27T02:39:51.250Z,4.10
2023-01-27T02:40:46.995Z,4.07
2023-01-27T02:41:43.987Z,3.60
2023-01-27T02:42:40.090Z,3.85
2023-01-27T02:43:32.661Z,3.83
2023-01-27T02:44:27.870Z,4.03
2023-01-27T02:45:20.506Z,3.20
2023-01-27T02:46:15.717Z,3.30
2023-01-27T02:47:08.306Z,3.35
2023-01-27T02:48:03.490Z,3.53
2023-01-27T02:48:57.668Z,4.10
2023-01-27T02:49:54.456Z,3.80
2023-01-27T02:50:48.038Z,3.60
2023-01-27T02:51:43.227Z,3.60
2023-01-27T02:52:36.282Z,3.77
2023-01-27T02:53:31.578Z,3.92
2023-01-27T02:54:24.987Z,3.47
2023-01-27T02:55:20.263Z,3.58
2023-01-27T02:56:17.262Z,3.58
2023-01-27T02:57:12.615Z,3.40
2023-01-27T02:58:20.407Z,3.60
2023-01-27T02:59:16.770Z,3.67
2023-01-27T03:00:13.913Z,2.93
2023-01-27T03:01:06.606Z,3.30
2023-01-27T03:02:02.744Z,2.90
2023-01-27T03:02:55.361Z,3.77
2023-01-27T03:03:51.437Z,3.47
2023-01-27T03:04:45.174Z,3.50
2023-01-27T03:05:44.005Z,3.20
2023-01-27T03:06:36.651Z,3.63
2023-01-27T03:07:31.870Z,3.58
2023-01-27T03:08:24.457Z,3.72
2023-01-27T03:09:19.624Z,4.18
2023-01-27T03:10:12.345Z,4.18
2023-01-27T03:11:07.878Z,3.50
2023-01-27T03:12:16.085Z,4.60
2023-01-27T03:13:13.948Z,4.03
2023-01-27T03:14:06.918Z,4.45
2023-01-27T03:15:14.821Z,4.17
2023-01-27T03:16:23.627Z,3.90
2023-01-27T03:17:31.247Z,3.83
2023-01-27T03:18:26.436Z,4.10
2023-01-27T03:19:19.143Z,3.92
2023-01-27T03:20:15.980Z,3.65
2023-01-27T03:21:08.642Z,4.40
2023-01-27T03:22:03.820Z,4.70
2023-01-27T03:22:59.059Z,3.80
2023-01-27T03:23:54.680Z,5.27
2023-01-27T03:24:48.958Z,4.65
2023-01-27T03:25:45.241Z,4.18
2023-01-27T03:26:38.774Z,4.30
2023-01-27T03:27:36.251Z,4.47
2023-01-27T03:29:14.462Z,3.92
2023-01-27T03:30:10.718Z,4.27
2023-01-27T03:31:07.695Z,4.38
2023-01-27T03:32:10.625Z,4.20
2023-01-27T03:33:07.592Z,4.35
2023-01-27T03:34:18.346Z,4.25
2023-01-27T03:35:19.557Z,3.70
2023-01-27T03:36:29.126Z,4.20
2023-01-27T03:37:37.132Z,3.60
2023-01-27T03:38:44.685Z,4.38
2023-01-27T03:39:52.525Z,4.00
2023-01-27T03:41:00.402Z,4.00
2023-01-27T03:42:08.609Z,4.03
2023-01-27T03:43:18.200Z,3.65
2023-01-27T03:44:28.642Z,4.37
2023-01-27T03:45:36.281Z,3.40
2023-01-27T03:46:32.886Z,3.90
2023-01-27T03:47:26.406Z,3.75
2023-01-27T03:48:21.595Z,3.80
2023-01-27T03:49:14.140Z,3.95
2023-01-27T03:50:11.495Z,4.43
2023-01-27T03:51:07.157Z,3.63
2023-01-27T03:52:02.385Z,3.90
2023-01-27T03:53:03.384Z,4.13
2023-01-27T03:54:01.062Z,4.38
2023-01-27T03:54:53.689Z,4.10
2023-01-27T03:55:47.018Z,4.05
2023-01-27T03:56:42.280Z,4.07
2023-01-27T03:57:37.158Z,4.15
2023-01-27T03:58:33.458Z,3.63
2023-01-27T03:59:28.664Z,3.90
2023-01-27T04:00:24.378Z,4.15
2023-01-27T04:01:21.733Z,4.00
2023-01-27T04:02:29.380Z,4.40
2023-01-27T04:03:38.165Z,4.10
2023-01-27T04:04:45.721Z,4.70
2023-01-27T04:05:53.276Z,4.05
2023-01-27T04:07:03.050Z,3.97
2023-01-27T04:07:55.677Z,4.83
2023-01-27T04:08:48.305Z,4.10
2023-01-27T04:09:43.460Z,4.00
2023-01-27T04:10:36.003Z,4.25
2023-01-27T04:11:43.550Z,4.70
2023-01-27T04:12:36.103Z,4.13
2023-01-27T04:13:31.251Z,4.75
2023-01-27T04:14:26.058Z,4.60
2023-01-27T04:15:24.207Z,4.45
2023-01-27T04:16:18.125Z,4.30
2023-01-27T04:17:15.016Z,4.03
2023-01-27T04:18:07.755Z,4.10
2023-01-27T04:19:00.645Z,4.10
2023-01-27T04:19:55.823Z,4.03
2023-01-27T04:20:48.382Z,4.75
2023-01-27T04:21:41.591Z,4.28
2023-01-27T04:22:36.802Z,4.20
2023-01-27T04:23:29.365Z,3.83
2023-01-27T04:24:27.579Z,4.13
2023-01-27T04:25:20.176Z,4.32
2023-01-27T04:26:13.576Z,3.70
2023-01-27T04:27:10.305Z,4.05
2023-01-27T04:28:03.820Z,3.43
2023-01-27T04:28:56.386Z,3.97
2023-01-27T04:29:51.775Z,3.70
2023-01-27T04:30:47.181Z,3.33
2023-01-27T04:31:42.615Z,3.85
2023-01-27T04:32:37.899Z,3.53
2023-01-27T04:33:30.699Z,3.80
2023-01-27T04:34:26.130Z,4.07
2023-01-27T04:35:21.538Z,4.00
2023-01-27T04:36:18.579Z,3.95
2023-01-27T04:37:14.049Z,3.73
2023-01-27T04:38:06.625Z,4.05
2023-01-27T04:38:59.177Z,3.55
2023-01-27T04:39:54.359Z,3.73
2023-01-27T04:40:46.943Z,3.70
2023-01-27T04:41:42.423Z,3.67
2023-01-27T04:42:34.994Z,4.00
2023-01-27T04:43:28.144Z,3.60
2023-01-27T04:44:23.753Z,3.45
2023-01-27T04:45:16.504Z,3.58
2023-01-27T04:46:14.329Z,3.70
2023-01-27T04:47:06.907Z,4.13
2023-01-27T04:48:02.208Z,3.60
2023-01-27T04:48:54.807Z,3.85
2023-01-27T04:49:49.959Z,3.85
2023-01-27T04:50:42.568Z,3.75
2023-01-27T04:51:37.823Z,4.00
2023-01-27T04:52:30.811Z,4.10
2023-01-27T04:53:25.981Z,3.60
2023-01-27T04:54:18.531Z,3.60
2023-01-27T04:55:14.174Z,3.63
2023-01-27T04:56:14.781Z,3.70
2023-01-27T04:57:10.590Z,3.50
2023-01-27T04:58:04.438Z,3.65
2023-01-27T04:59:01.739Z,3.97
2023-01-27T04:59:54.305Z,3.90
2023-01-27T05:00:49.532Z,3.75
2023-01-27T05:01:47.334Z,3.75
2023-01-27T05:02:39.914Z,3.45
2023-01-27T05:03:32.594Z,4.15
2023-01-27T05:04:29.097Z,3.42
2023-01-27T05:05:21.655Z,3.60
2023-01-27T05:06:17.359Z,3.90
2023-01-27T05:07:10.079Z,4.00
2023-01-27T05:08:06.148Z,4.10
2023-01-27T05:08:58.718Z,3.90
2023-01-27T05:09:53.905Z,4.07
2023-01-27T05:10:46.502Z,4.13
2023-01-27T05:11:41.653Z,4.03
2023-01-27T05:12:34.238Z,4.38
2023-01-27T05:13:26.831Z,4.10
2023-01-27T05:14:23.707Z,3.58
2023-01-27T05:15:16.439Z,3.43
2023-01-27T05:16:12.207Z,3.65
2023-01-27T05:17:10.262Z,3.90
2023-01-27T05:18:02.961Z,3.60
2023-01-27T05:18:58.483Z,3.35
2023-01-27T05:19:51.126Z,3.27
2023-01-27T05:20:46.320Z,3.55
2023-01-27T05:21:38.977Z,3.75
2023-01-27T05:22:34.113Z,3.80
2023-01-27T05:23:35.735Z,3.73
2023-01-27T05:24:30.973Z,3.38
2023-01-27T05:25:23.564Z,4.05
2023-01-27T05:26:22.941Z,3.55
2023-01-27T05:27:15.519Z,3.70
2023-01-27T05:28:10.693Z,3.40
2023-01-27T05:29:03.302Z,3.63
2023-01-27T05:29:58.810Z,3.47
2023-01-27T05:30:51.487Z,3.40
2023-01-27T05:31:46.746Z,3.03
2023-01-27T05:32:41.916Z,3.60
2023-01-27T05:33:37.158Z,3.33
2023-01-27T05:34:29.704Z,3.60
2023-01-27T05:35:24.852Z,3.95
2023-01-27T05:36:19.791Z,3.20
2023-01-27T05:37:15.017Z,3.30
2023-01-27T05:38:07.595Z,2.97
2023-01-27T05:39:02.821Z,3.58
2023-01-27T05:39:55.591Z,3.47
2023-01-27T05:40:48.155Z,3.37
2023-01-27T05:41:43.333Z,4.00
2023-01-27T05:42:35.998Z,3.97
2023-01-27T05:43:31.990Z,4.17
2023-01-27T05:44:24.577Z,3.05
2023-01-27T05:45:19.930Z,3.10
2023-01-27T05:46:16.935Z,3.90
2023-01-27T05:47:09.593Z,3.50
2023-01-27T05:48:07.507Z,3.72
2023-01-27T05:49:01.828Z,3.33
2023-01-27T05:49:57.027Z,3.60
2023-01-27T05:50:56.175Z,3.53
2023-01-27T05:51:51.321Z,3.50
2023-01-27T05:52:43.908Z,3.30
2023-01-27T05:53:39.272Z,3.28
2023-01-27T05:54:31.828Z,3.70
2023-01-27T05:55:27.009Z,3.60
2023-01-27T05:56:20.182Z,3.55
2023-01-27T05:57:15.324Z,3.63
2023-01-27T05:58:08.621Z,3.43
2023-01-27T05:59:04.012Z,4.05
2023-01-27T05:59:56.599Z,3.73
2023-01-27T06:00:52.132Z,4.07
2023-01-27T06:01:44.897Z,3.50
2023-01-27T06:02:41.124Z,3.65
2023-01-27T06:03:36.319Z,4.05
2023-01-27T06:04:31.460Z,4.43
2023-01-27T06:05:24.007Z,3.80
2023-01-27T06:06:20.821Z,3.90
2023-01-27T06:07:13.467Z,4.17
2023-01-27T06:08:08.619Z,4.05
2023-01-27T06:09:02.694Z,4.07
2023-01-27T06:09:58.467Z,3.90
2023-01-27T06:10:51.516Z,3.80
2023-01-27T06:11:47.563Z,4.05
2023-01-27T06:12:40.329Z,4.27
2023-01-27T06:13:38.867Z,4.03
2023-01-27T06:14:31.615Z,3.63
2023-01-27T06:15:26.830Z,3.85
2023-01-27T06:16:20.760Z,4.00
2023-01-27T06:17:15.974Z,4.07
2023-01-27T06:18:08.599Z,4.07
2023-01-27T06:19:06.412Z,4.30
2023-01-27T06:19:58.990Z,3.83
2023-01-27T06:20:54.144Z,3.73
2023-01-27T06:21:46.746Z,4.10
2023-01-27T06:22:41.972Z,5.90
2023-01-27T06:23:35.010Z,4.65
2023-01-27T06:24:30.449Z,4.78
2023-01-27T06:25:23.226Z,3.92
2023-01-27T06:26:21.430Z,3.70
2023-01-27T06:27:14.061Z,4.38
2023-01-27T06:28:12.571Z,4.00
2023-01-27T06:29:07.152Z,4.43
2023-01-27T06:30:02.293Z,4.03
2023-01-27T06:30:54.916Z,3.87
2023-01-27T06:31:50.205Z,4.20
2023-01-27T06:32:42.816Z,4.63
2023-01-27T06:33:38.727Z,4.00
2023-01-27T06:34:34.391Z,4.47
2023-01-27T06:35:29.642Z,4.20
2023-01-27T06:36:23.258Z,4.03
2023-01-27T06:37:18.432Z,4.80
2023-01-27T06:38:14.533Z,4.32
2023-01-27T06:39:09.906Z,5.13
2023-01-27T06:40:02.498Z,4.90
2023-01-27T06:41:03.519Z,4.40
2023-01-27T06:41:56.085Z,4.35
2023-01-27T06:42:51.229Z,4.70
2023-01-27T06:43:43.775Z,4.28
2023-01-27T06:44:39.018Z,4.70
2023-01-27T06:45:31.590Z,4.60
2023-01-27T06:46:26.763Z,4.35
2023-01-27T06:47:19.407Z,3.97
2023-01-27T06:48:14.576Z,4.10
2023-01-27T06:49:07.236Z,4.18
2023-01-27T06:50:04.999Z,4.60
2023-01-27T06:50:57.865Z,4.55
2023-01-27T06:51:53.075Z,4.33
2023-01-27T06:52:46.022Z,4.10
2023-01-27T06:53:41.225Z,4.85
2023-01-27T06:54:33.930Z,4.72
2023-01-27T06:55:29.103Z,4.35
2023-01-27T06:56:21.685Z,3.85
2023-01-27T06:57:16.964Z,4.32
2023-01-27T06:58:10.656Z,4.30
2023-01-27T06:59:06.157Z,4.27
2023-01-27T06:59:58.732Z,4.10
2023-01-27T07:00:54.138Z,4.30
2023-01-27T07:01:46.810Z,4.53
2023-01-27T07:02:42.118Z,4.60
2023-01-27T07:03:37.720Z,4.57
2023-01-27T07:04:32.909Z,3.78
2023-01-27T07:05:28.090Z,4.07
2023-01-27T07:06:23.348Z,4.35
2023-01-27T07:07:15.887Z,4.55
2023-01-27T07:08:11.389Z,3.70
2023-01-27T07:09:04.149Z,3.97
2023-01-27T07:09:59.331Z,4.37
2023-01-27T07:10:51.957Z,5.07
2023-01-27T07:11:47.282Z,4.15
2023-01-27T07:12:39.868Z,4.45
2023-01-27T07:13:35.080Z,4.45
2023-01-27T07:14:27.659Z,4.35
2023-01-27T07:15:23.118Z,4.78
2023-01-27T07:16:15.720Z,4.20
2023-01-27T07:17:11.170Z,4.18
2023-01-27T07:18:03.964Z,4.07
2023-01-27T07:18:59.127Z,3.80
2023-01-27T07:19:51.697Z,4.40
2023-01-27T07:20:49.466Z,4.43
2023-01-27T07:21:42.018Z,3.90
2023-01-27T07:22:37.314Z,3.50
2023-01-27T07:23:29.862Z,4.28
2023-01-27T07:24:25.077Z,4.00
2023-01-27T07:25:17.800Z,3.60
2023-01-27T07:26:24.504Z,3.60
2023-01-27T07:27:17.803Z,3.47
2023-01-27T07:28:13.178Z,3.40
2023-01-27T07:29:05.735Z,3.40
2023-01-27T07:30:00.907Z,2.90
2023-01-27T07:30:53.530Z,3.33
2023-01-27T07:31:48.767Z,3.33
2023-01-27T07:32:41.375Z,3.20
2023-01-27T07:33:37.312Z,3.13
2023-01-27T07:34:29.938Z,3.40
2023-01-27T07:35:25.659Z,3.35
2023-01-27T07:36:21.180Z,3.45
2023-01-27T07:37:17.042Z,3.50
2023-01-27T07:38:09.876Z,3.35
2023-01-27T07:39:05.058Z,3.40
2023-01-27T07:39:57.869Z,3.17
2023-01-27T07:40:53.127Z,3.05
2023-01-27T07:41:45.748Z,3.20
2023-01-27T07:42:43.533Z,3.40
2023-01-27T07:43:36.312Z,3.20
2023-01-27T07:44:36.060Z,3.77
2023-01-27T07:45:29.528Z,3.53
2023-01-27T07:46:24.805Z,3.45
2023-01-27T07:47:17.461Z,2.90
2023-01-27T07:48:13.025Z,3.55
2023-01-27T07:49:05.605Z,3.20
2023-01-27T07:50:00.762Z,3.23
2023-01-27T07:50:53.359Z,3.10
2023-01-27T07:51:51.147Z,3.67
2023-01-27T07:52:43.775Z,2.70
2023-01-27T07:53:38.926Z,3.10
2023-01-27T07:54:31.486Z,3.50
2023-01-27T07:55:26.625Z,3.63
2023-01-27T07:56:21.813Z,3.30
2023-01-27T07:57:14.441Z,3.05
2023-01-27T07:58:10.235Z,3.45
2023-01-27T07:59:03.790Z,3.60
2023-01-27T07:59:58.964Z,3.00
2023-01-27T08:00:54.275Z,3.37
2023-01-27T08:01:48.298Z,3.40
2023-01-27T08:02:43.687Z,3.25
2023-01-27T08:03:36.808Z,3.42
2023-01-27T08:04:43.443Z,3.70
2023-01-27T08:05:43.915Z,3.30
2023-01-27T08:06:40.993Z,3.50
2023-01-27T08:07:36.167Z,3.25
2023-01-27T08:08:31.327Z,3.40
2023-01-27T08:09:23.893Z,3.58
2023-01-27T08:10:20.436Z,3.55
2023-01-27T08:11:14.348Z,3.35
2023-01-27T08:12:09.861Z,3.80
2023-01-27T08:13:02.524Z,3.40
2023-01-27T08:13:57.708Z,3.47
2023-01-27T08:14:50.292Z,3.07
2023-01-27T08:15:45.776Z,3.20
2023-01-27T08:16:41.035Z,3.55
2023-01-27T08:17:33.676Z,3.67
2023-01-27T08:18:29.681Z,3.60
2023-01-27T08:19:22.248Z,3.83
2023-01-27T08:20:19.089Z,3.58
2023-01-27T08:21:12.734Z,3.75
2023-01-27T08:22:07.964Z,4.00
2023-01-27T08:23:03.232Z,3.80
2023-01-27T08:23:58.543Z,3.77
2023-01-27T08:24:51.173Z,3.83
2023-01-27T08:25:52.238Z,3.55
2023-01-27T08:26:47.447Z,3.40
2023-01-27T08:27:40.071Z,3.30
2023-01-27T08:28:37.735Z,3.15
2023-01-27T08:29:32.662Z,3.50
2023-01-27T08:30:28.318Z,3.30
2023-01-27T08:31:21.049Z,3.90
2023-01-27T08:32:16.222Z,3.50
2023-01-27T08:33:08.857Z,3.50
2023-01-27T08:34:04.167Z,3.80
2023-01-27T08:34:56.752Z,3.60
2023-01-27T08:35:52.720Z,3.27
2023-01-27T08:36:45.319Z,3.70
2023-01-27T08:37:40.457Z,3.25
2023-01-27T08:38:38.134Z,3.25
2023-01-27T08:39:33.437Z,3.00
2023-01-27T08:40:26.053Z,3.40
2023-01-27T08:41:22.945Z,3.45
2023-01-27T08:42:15.512Z,3.30
2023-01-27T08:43:11.112Z,3.50
2023-01-27T08:44:03.961Z,3.40
2023-01-27T08:45:00.559Z,3.63
2023-01-27T08:45:53.577Z,3.60
2023-01-27T08:46:48.904Z,3.10
2023-01-27T08:47:41.514Z,3.30
2023-01-27T08:48:37.275Z,3.50
2023-01-27T08:49:32.863Z,3.87
2023-01-27T08:50:25.472Z,3.42
2023-01-27T08:51:20.777Z,3.28
2023-01-27T08:52:13.350Z,3.30
2023-01-27T08:53:08.558Z,3.38
2023-01-27T08:54:06.391Z,3.63
2023-01-27T08:54:59.110Z,3.10
2023-01-27T08:55:55.025Z,3.20
2023-01-27T08:56:50.218Z,3.00
2023-01-27T08:57:42.858Z,3.65
2023-01-27T08:58:38.768Z,3.50
2023-01-27T08:59:31.391Z,3.40
2023-01-27T09:00:26.802Z,3.55
2023-01-27T09:01:20.385Z,3.70
2023-01-27T09:02:16.387Z,3.95
2023-01-27T09:03:09.019Z,3.50
2023-01-27T09:04:04.211Z,4.10
2023-01-27T09:04:56.828Z,3.97
2023-01-27T09:05:51.974Z,3.60
2023-01-27T09:06:50.465Z,3.38
2023-01-27T09:07:43.024Z,3.78
2023-01-27T09:08:38.483Z,3.70
2023-01-27T09:09:33.674Z,3.50
2023-01-27T09:10:28.824Z,3.83
2023-01-27T09:11:21.358Z,4.00
2023-01-27T09:12:16.672Z,3.77
2023-01-27T09:13:09.444Z,3.90
2023-01-27T09:14:04.647Z,3.73
2023-01-27T09:14:58.425Z,3.70
2023-01-27T09:15:54.707Z,4.00
2023-01-27T09:16:47.287Z,4.50
2023-01-27T09:17:42.607Z,4.55
2023-01-27T09:18:37.982Z,4.13
2023-01-27T09:19:30.546Z,4.13
2023-01-27T09:20:25.788Z,4.88
2023-01-27T09:21:18.347Z,4.30
2023-01-27T09:22:13.541Z,4.22
2023-01-27T09:23:06.255Z,4.60
2023-01-27T09:24:01.467Z,4.10
2023-01-27T09:24:56.691Z,4.40
2023-01-27T09:25:52.519Z,4.40
2023-01-27T09:26:46.098Z,4.60
2023-01-27T09:27:41.270Z,3.70
2023-01-27T09:28:36.485Z,4.47
2023-01-27T09:29:29.531Z,4.65
2023-01-27T09:30:24.862Z,4.53
2023-01-27T09:31:17.577Z,4.80
2023-01-27T09:32:12.843Z,4.10
2023-01-27T09:33:05.488Z,4.97
2023-01-27T09:34:00.645Z,4.53
2023-01-27T09:34:53.186Z,4.40
2023-01-27T09:35:52.681Z,4.47
2023-01-27T09:36:48.710Z,3.40
2023-01-27T09:37:47.584Z,5.20
2023-01-27T09:38:42.526Z,4.85
2023-01-27T09:39:40.645Z,4.28
2023-01-27T09:40:54.077Z,4.60
2023-01-27T09:42:12.573Z,4.05
2023-01-27T09:43:16.515Z,4.30
2023-01-27T09:44:25.742Z,4.00
2023-01-27T09:45:29.051Z,4.90
2023-01-27T09:46:45.426Z,4.10
2023-01-27T09:47:51.977Z,4.30
2023-01-27T09:49:04.915Z,4.77
2023-01-27T09:50:11.046Z,4.20
2023-01-27T09:51:13.923Z,4.77
2023-01-27T09:52:38.377Z,5.40
2023-01-27T09:53:58.520Z,4.50
2023-01-27T09:55:00.841Z,4.70
2023-01-27T09:56:01.563Z,4.10
2023-01-27T09:57:01.047Z,4.20
2023-01-27T09:58:03.296Z,4.00
2023-01-27T09:59:20.575Z,4.00
2023-01-27T10:00:26.395Z,4.60
2023-01-27T10:01:27.798Z,5.13
2023-01-27T10:02:34.614Z,6.57
2023-01-27T10:03:39.456Z,5.32
2023-01-27T10:04:51.060Z,6.43
2023-01-27T10:05:54.987Z,6.00
2023-01-27T10:07:03.198Z,5.05
2023-01-27T10:08:06.170Z,5.80
2023-01-27T10:09:10.857Z,7.57
2023-01-27T10:10:22.606Z,7.70
2023-01-27T10:11:23.481Z,6.10
2023-01-27T10:12:27.445Z,5.82
2023-01-27T10:13:29.933Z,6.00
2023-01-27T10:14:31.925Z,5.10
2023-01-27T10:15:33.938Z,5.07
2023-01-27T10:16:45.804Z,4.30
2023-01-27T10:17:47.038Z,4.37
2023-01-27T10:18:57.079Z,4.80
2023-01-27T10:20:05.082Z,4.33
2023-01-27T10:21:06.932Z,3.10
2023-01-27T10:22:07.704Z,4.00
2023-01-27T10:23:11.611Z,3.87
2023-01-27T10:24:10.307Z,3.73
2023-01-27T10:25:19.441Z,3.87
2023-01-27T10:26:26.467Z,3.40
2023-01-27T10:27:23.017Z,3.30
2023-01-27T10:28:20.179Z,3.50
2023-01-27T10:29:17.265Z,3.43
2023-01-27T10:30:16.866Z,3.97
2023-01-27T10:31:14.985Z,2.87
2023-01-27T10:32:13.382Z,3.57
2023-01-27T10:33:17.362Z,3.20
2023-01-27T10:34:22.674Z,3.87
2023-01-27T10:35:21.368Z,4.10
2023-01-27T10:36:22.825Z,3.30
2023-01-27T10:37:25.498Z,3.70
2023-01-27T10:38:29.859Z,4.10
2023-01-27T10:39:27.705Z,4.20
2023-01-27T10:40:28.065Z,4.10
2023-01-27T10:41:30.464Z,3.63
2023-01-27T10:42:31.213Z,3.93
2023-01-27T10:43:27.925Z,3.77
2023-01-27T10:44:44.983Z,3.40
2023-01-27T10:45:41.662Z,3.47
2023-01-27T10:46:40.338Z,4.17
2023-01-27T10:47:43.950Z,4.17
2023-01-27T10:48:43.634Z,3.43
2023-01-27T10:49:39.731Z,3.90
2023-01-27T10:50:39.208Z,3.27
2023-01-27T10:51:38.382Z,3.80
2023-01-27T10:52:35.797Z,6.47
2023-01-27T10:53:36.770Z,6.60
2023-01-27T10:54:36.679Z,4.50
2023-01-27T10:55:37.951Z,4.63
2023-01-27T10:56:42.422Z,4.77
2023-01-27T10:57:38.969Z,4.20
2023-01-27T10:58:45.902Z,3.90
2023-01-27T10:59:55.264Z,3.43
2023-01-27T11:01:19.910Z,4.27
2023-01-27T11:02:18.053Z,4.53
2023-01-27T11:03:14.306Z,4.40
2023-01-27T11:04:16.571Z,4.37
2023-01-27T11:05:11.903Z,3.87
2023-01-27T11:06:11.031Z,3.70
2023-01-27T11:07:04.617Z,4.40
2023-01-27T11:08:02.838Z,3.40
2023-01-27T11:09:05.658Z,4.40
2023-01-27T11:10:03.986Z,4.27
2023-01-27T11:11:14.955Z,4.10
2023-01-27T11:12:16.555Z,4.10
2023-01-27T11:13:10.624Z,4.23
2023-01-27T11:14:19.238Z,4.50
2023-01-27T11:15:20.293Z,3.97
2023-01-27T11:16:15.603Z,3.90
2023-01-27T11:17:18.237Z,4.20
2023-01-27T11:18:13.847Z,4.30
2023-01-27T11:19:19.118Z,4.00
2023-01-27T11:20:24.855Z,3.87
2023-01-27T11:21:19.853Z,4.50
2023-01-27T11:22:21.510Z,3.90
2023-01-27T11:23:17.557Z,4.20
2023-01-27T11:24:21.043Z,4.30
2023-01-27T11:25:24.870Z,4.23
2023-01-27T11:26:24.603Z,4.20
2023-01-27T11:27:34.342Z,4.30
2023-01-27T11:28:37.499Z,3.77
2023-01-27T11:29:35.890Z,4.47
2023-01-27T11:30:37.423Z,4.43
2023-01-27T11:31:37.845Z,3.70
2023-01-27T11:32:49.672Z,4.07
2023-01-27T11:33:58.073Z,4.50
2023-01-27T11:35:06.729Z,4.50
2023-01-27T11:35:59.361Z,4.00
2023-01-27T11:36:54.650Z,4.20
2023-01-27T11:37:48.910Z,4.20
2023-01-27T11:38:44.114Z,4.43
2023-01-27T11:39:36.675Z,4.07
2023-01-27T11:40:34.730Z,4.43
2023-01-27T11:41:27.368Z,4.33
2023-01-27T11:42:23.036Z,4.03
2023-01-27T11:43:20.139Z,4.23
2023-01-27T11:44:20.647Z,4.37
2023-01-27T11:45:18.175Z,4.50
2023-01-27T11:46:17.033Z,4.50
2023-01-27T11:47:12.547Z,4.73
2023-01-27T11:48:11.340Z,4.07
2023-01-27T11:49:03.950Z,4.37
2023-01-27T11:49:59.683Z,4.70
2023-01-27T11:50:54.904Z,3.70
2023-01-27T11:51:49.302Z,4.20
2023-01-27T11:52:45.465Z,4.17
2023-01-27T11:53:40.336Z,3.87
2023-01-27T11:54:40.136Z,4.03
2023-01-27T11:55:40.345Z,4.13
2023-01-27T11:56:36.881Z,3.80
2023-01-27T11:57:29.668Z,4.03
2023-01-27T11:58:30.475Z,4.30
2023-01-27T11:59:24.429Z,4.73
2023-01-27T12:00:24.863Z,4.20
2023-01-27T12:01:19.820Z,4.53
2023-01-27T12:02:25.474Z,4.47
2023-01-27T12:03:21.251Z,4.60
2023-01-27T12:04:21.192Z,4.70
2023-01-27T12:05:16.911Z,4.53
2023-01-27T12:06:17.732Z,4.53
2023-01-27T12:07:15.184Z,4.30
2023-01-27T12:08:10.342Z,4.30
2023-01-27T12:09:05.578Z,4.77
2023-01-27T12:09:58.150Z,4.53
2023-01-27T12:10:53.334Z,4.93
2023-01-27T12:11:45.895Z,4.50
2023-01-27T12:12:41.133Z,4.60
2023-01-27T12:13:36.307Z,4.63
2023-01-27T12:14:31.487Z,4.20
2023-01-27T12:15:28.575Z,4.17
2023-01-27T12:16:21.638Z,4.63
2023-01-27T12:17:21.265Z,5.00
2023-01-27T12:18:18.292Z,4.90
2023-01-27T12:19:26.951Z,4.33
2023-01-27T12:20:29.019Z,4.63
2023-01-27T12:21:24.943Z,4.70
2023-01-27T12:22:25.138Z,4.27
2023-01-27T12:23:24.386Z,4.73
2023-01-27T12:24:27.627Z,4.63
2023-01-27T12:25:28.002Z,4.23
2023-01-27T12:26:34.420Z,4.83
2023-01-27T12:27:31.956Z,4.73
2023-01-27T12:28:28.092Z,4.20
2023-01-27T12:29:30.108Z,5.00
2023-01-27T12:30:24.334Z,4.57
2023-01-27T12:31:23.559Z,4.50
2023-01-27T12:32:17.961Z,4.70
2023-01-27T12:33:15.143Z,4.80
2023-01-27T12:34:16.594Z,4.87
2023-01-27T12:35:22.654Z,4.57
2023-01-27T12:36:17.802Z,4.63